Latest Coastal Weather Observations for Cape Otway

IDV60701

Issued at 10:21 am EDT Tuesday 9 February 2016 (issued every 10 minutes, with the page automatically refreshed every 10 minutes)

About coastal observations | Map of coastal stations | Coastal observations for VIC | Marine services | Other Formats
Station Details ID: 090015 Name: CAPE OTWAY LIGHTHOUSE Lat: -38.86 Lon: 143.51 Height: 82.0 m
Data from the previous 72 hours. | See also: Recent months at Cape Otway
Date/Time
EDT
Temp

°C
Wind Pressure Rain
since 9am
mm
Weather Cloud Vis
km
Sea
Height
m
Swell
Dir
 
Speed
knots
Gust
knots
hPa Trend Height
m
Period
s
Dir
09/10:00am 18.0 SE 4 7 1022.4 - 0.0 - - - - - - -
09/09:30am 18.0 SE 6 9 1022.6 - 0.0 - - - - - - -
09/09:00am 17.6 SE 3 4 1022.5 - 0.0 - - - - - - -
09/08:30am 16.9 SE 6 9 1022.6 - 0.0 - - - - - - -
09/08:00am 17.0 ESE 5 7 1022.5 - 0.0 - - - - - - -
09/07:30am 16.7 E 7 10 1022.4 - 0.0 - - - - - - -
09/07:00am 16.7 E 6 9 1022.3 - 0.0 - - - - - - -
09/06:30am 16.5 ESE 6 9 1022.1 - 0.0 - - - - - - -
09/06:00am 16.7 SE 4 7 1021.6 - 0.0 - - - - - - -
09/05:30am 16.5 SSE 5 11 1021.7 - 0.0 - - - - - - -
09/05:00am 16.4 SE 6 9 1021.7 - 0.0 - - - - - - -
09/04:30am 16.7 S 4 8 1021.7 - 0.0 - - - - - - -
09/04:00am 16.6 S 5 8 1021.9 - 0.0 - - - - - - -
09/03:30am 16.8 SW 4 8 1022.0 - 0.0 - - - - - - -
09/03:00am 16.7 S 5 10 1022.2 - 0.0 - - - - - - -
09/02:30am 16.7 SW 5 10 1022.6 - 0.0 - - - - - - -
09/02:00am 16.5 SW 6 8 1022.9 - 0.0 - - - - - - -
09/01:30am 16.7 SW 5 8 1023.3 - 0.0 - - - - - - -
09/01:00am 16.7 SW 5 8 1023.5 - 0.0 - - - - - - -
09/12:30am 16.7 SSW 6 11 1023.6 - 0.0 - - - - - - -
09/12:00am 16.7 SSW 6 10 1023.6 - 0.0 - - - - - - -
 
Date/Time
EDT
Temp

°C
Wind Pressure Rain
since 9am
mm
Weather Cloud Vis
km
Sea
Height
m
Swell
Dir
 
Speed
knots
Gust
knots
hPa Trend Height
m
Period
s
Dir
08/11:30pm 16.7 SW 5 7 1024.0 - 0.0 - - - - - - -
08/11:00pm 16.9 SW 5 8 1024.3 - 0.0 - - - - - - -
08/10:30pm 17.1 SSW 8 12 1024.4 - 0.0 - - - - - - -
08/10:00pm 17.1 SW 7 9 1024.3 - 0.0 - - - - - - -
08/09:30pm 17.0 SW 6 9 1024.2 - 0.0 - - - - - - -
08/09:00pm 17.4 SSW 8 12 1023.7 - 0.0 - - - - - - -
08/08:30pm 17.4 SSW 8 12 1023.7 - 0.0 - - - - - - -
08/08:00pm 17.8 SSW 8 11 1023.5 - 0.0 - - - - - - -
08/07:30pm 18.5 SSW 7 10 1023.2 - 0.0 - - - - - - -
08/07:00pm 19.1 SSW 8 11 1022.9 - 0.0 - - - - - - -
08/06:30pm 20.4 SW 8 10 1022.9 - 0.0 - - - - - - -
08/06:00pm 20.2 SW 7 10 1022.8 - 0.0 - - - - - - -
08/05:30pm 20.5 SSW 7 10 1023.1 - 0.0 - - - - - - -
08/05:00pm 19.7 SSW 9 11 1023.2 - 0.0 - - - - - - -
08/04:30pm 20.5 SW 8 10 1023.4 - 0.0 - - - - - - -
08/04:00pm 20.8 SSW 8 11 1023.4 - 0.0 - - - - - - -
08/03:30pm 20.0 SW 8 9 1023.4 - 0.0 - - - - - - -
08/03:00pm 20.3 WSW 7 10 1023.4 - 0.0 - - - - - - -
08/02:30pm 20.2 SSW 6 9 1023.6 - 0.0 - - - - - - -
08/02:00pm 19.6 SSW 7 9 1023.8 - 0.0 - - - - - - -
08/01:30pm 20.0 SSW 7 10 1023.9 - 0.0 - - - - - - -
08/01:00pm 19.8 SSW 8 10 1024.0 - 0.0 - - - - - - -
08/12:30pm 19.6 SSW 6 8 1024.0 - 0.0 - - - - - - -
08/12:00pm 19.3 SSW 6 8 1023.8 - 0.0 - - - - - - -
08/11:30am 18.4 SW 8 9 1023.9 - 0.0 - - - - - - -
08/11:00am 18.4 SSW 8 11 1023.9 - 0.0 - - - - - - -
08/10:30am 18.2 SSW 8 10 1023.8 - 0.0 - - - - - - -
08/10:00am 18.0 WSW 6 7 1023.7 - 0.0 - - - - - - -
08/09:30am 17.5 SW 10 13 1023.7 - 0.0 - - - - - - -
08/09:00am 17.5 SSW 7 11 1023.1 - 0.0 - - - - - - -
08/08:30am 17.5 SSW 7 9 1023.0 - 0.0 - - - - - - -
08/08:00am 17.3 SW 7 9 1022.6 - 0.0 - - - - - - -
08/07:30am 17.2 SW 6 8 1022.3 - 0.0 - - - - - - -
08/07:00am 17.1 SSW 8 12 1022.0 - 0.0 - - - - - - -
08/06:30am 17.2 SSW 7 11 1021.7 - 0.0 - - - - - - -
08/06:00am 17.2 SSW 8 11 1021.1 - 0.0 - - - - - - -
08/05:30am 17.2 SSW 7 10 1021.1 - 0.0 - - - - - - -
08/05:00am 17.6 SSW 7 9 1021.0 - 0.0 - - - - - - -
08/04:30am 17.4 SW 7 10 1020.9 - 0.0 - - - - - - -
08/04:00am 17.6 SSW 8 12 1020.8 - 0.0 - - - - - - -
08/03:30am 17.6 SSW 11 16 1020.8 - 0.0 - - - - - - -
08/03:00am 17.5 SW 10 13 1020.7 - 0.0 - - - - - - -
08/02:30am 17.7 SSW 8 11 1020.9 - 0.0 - - - - - - -
08/02:00am 17.7 SSW 7 8 1021.0 - 0.0 - - - - - - -
08/01:30am 17.8 SSW 8 11 1021.1 - 0.0 - - - - - - -
08/01:00am 17.9 SSW 7 9 1021.1 - 0.0 - - - - - - -
08/12:30am 17.8 SSW 11 13 1021.1 - 0.0 - - - - - - -
08/12:00am 18.1 SSW 7 10 1020.8 - 0.0 - - - - - - -
 
Date/Time
EDT
Temp

°C
Wind Pressure Rain
since 9am
mm
Weather Cloud Vis
km
Sea
Height
m
Swell
Dir
 
Speed
knots
Gust
knots
hPa Trend Height
m
Period
s
Dir
07/11:30pm 17.9 SSW 10 13 1020.9 - 0.0 - - - - - - -
07/11:00pm 17.6 SSW 8 11 1020.8 - 0.0 - - - - - - -
07/10:30pm 17.3 SW 7 10 1020.7 - 0.0 - - - - - - -
07/10:00pm 17.5 SW 8 10 1020.6 - 0.0 - - - - - - -
07/09:30pm 17.6 WSW 7 10 1020.3 - 0.0 - - - - - - -
07/09:00pm 17.7 WSW 8 10 1019.6 - 0.0 - - - - - - -
07/08:30pm 18.1 WSW 7 9 1019.4 - 0.0 - - - - - - -
07/08:00pm 18.9 WSW 7 9 1019.0 - 0.0 - - - - - - -
07/07:30pm 19.6 WSW 8 10 1018.8 - 0.0 - - - - - - -
07/07:00pm 20.2 W 8 11 1018.6 - 0.0 - - - - - - -
07/06:30pm 19.6 W 9 12 1018.5 - 0.0 - - - - - - -
07/06:00pm 20.5 W 9 12 1018.2 - 0.0 - - - - - - -
07/05:30pm 19.8 W 10 12 1018.2 - 0.0 - - - - - - -
07/05:00pm 20.6 W 9 12 1018.1 - 0.0 - - - - - - -
07/04:30pm 20.7 W 10 13 1018.2 - 0.0 - - - - - - -
07/04:00pm 20.6 W 11 13 1018.2 - 0.0 - - - - - - -
07/03:30pm 21.3 W 11 14 1018.2 - 0.0 - - - - - - -
07/03:00pm 21.4 W 10 12 1017.9 - 0.0 - - - - - - -
07/02:30pm 21.5 W 10 12 1018.3 - 0.0 - - - - - - -
07/02:00pm 21.6 W 10 13 1018.3 - 0.0 - - - - - - -
07/01:30pm 21.4 W 10 12 1018.1 - 0.0 - - - - - - -
07/01:00pm 20.6 W 9 12 1018.0 - 0.0 - - - - - - -
07/12:30pm 20.4 W 9 12 1018.2 - 0.0 - - - - - - -
07/12:00pm 20.4 W 9 12 1018.0 - 0.0 - - - - - - -
07/11:30am 20.2 W 9 12 1018.2 - 0.0 - - - - - - -
07/11:00am 19.8 W 9 12 1018.1 - 0.0 - - - - - - -
07/10:30am 20.1 W 8 10 1017.8 - 0.0 - - - - - - -
07/10:00am 19.9 W 7 10 1017.7 - 0.0 - - - - - - -
07/09:30am 19.2 WNW 7 9 1017.6 - 0.0 - - - - - - -
07/09:00am 18.5 WNW 7 11 1017.4 - 0.0 - - - - - - -
07/08:30am 18.0 WNW 8 11 1017.3 - 0.0 - - - - - - -
07/08:00am 17.5 WNW 8 11 1016.9 - 0.0 - - - - - - -
07/07:30am 17.3 WNW 10 13 1016.8 - 0.0 - - - - - - -
07/07:00am 17.3 WNW 10 13 1016.6 - 0.0 - - - - - - -
07/06:30am 17.1 WNW 11 14 1016.3 - 0.0 - - - - - - -
07/06:00am 16.9 WNW 12 15 1015.7 - 0.0 - - - - - - -
07/05:30am 17.1 WNW 10 14 1015.1 - 0.0 - - - - - - -
07/05:00am 17.1 WNW 11 14 1014.9 - 0.0 - - - - - - -
07/04:30am 17.0 WNW 12 15 1014.8 - 0.0 - - - - - - -
07/04:00am 17.2 WNW 10 13 1014.8 - 0.0 - - - - - - -
07/03:30am 16.3 WNW 9 12 1015.1 - 0.0 - - - - - - -
07/03:00am 16.6 WNW 7 9 1015.1 - 0.0 - - - - - - -
07/02:30am 17.1 WNW 10 12 1015.1 - 0.0 - - - - - - -
07/02:00am 17.3 NNW 9 11 1015.1 - 0.0 - - - - - - -
07/01:30am 17.4 NNW 10 12 1015.2 - 0.0 - - - - - - -
07/01:00am 17.7 NNW 7 9 1015.7 - 0.0 - - - - - - -
07/12:30am 17.6 NW 5 6 1015.5 - 0.0 - - - - - - -
07/12:00am 18.5 WSW 3 5 1015.4 - 0.0 - - - - - - -
 
Date/Time
EDT
Temp

°C
Wind Pressure Rain
since 9am
mm
Weather Cloud Vis
km
Sea
Height
m
Swell
Dir
 
Speed
knots
Gust
knots
hPa Trend Height
m
Period
s
Dir
06/11:30pm 19.9 NE 7 9 1015.5 - 0.0 - - - - - - -
06/11:00pm 19.0 ENE 8 10 1015.8 - 0.0 - - - - - - -
06/10:30pm 18.6 ENE 9 10 1015.9 - 0.0 - - - - - - -
06/10:00pm 19.0 ENE 6 7 1015.9 - 0.0 - - - - - - -
06/09:30pm 19.7 NE 7 9 1015.5 - 0.0 - - - - - - -
06/09:00pm 19.8 NE 8 9 1015.2 - 0.0 - - - - - - -
06/08:30pm 20.6 ENE 8 10 1015.2 - 0.0 - - - - - - -
06/08:00pm 21.3 E 7 9 1015.0 - 0.0 - - - - - - -
06/07:30pm 22.3 E 7 10 1015.0 - 0.0 - - - - - - -
06/07:00pm 22.5 E 7 9 1014.7 - 0.0 - - - - - - -
06/06:30pm 22.6 E 8 10 1014.6 - 0.0 - - - - - - -
06/06:00pm 22.4 E 7 10 1014.6 - 0.0 - - - - - - -
06/05:30pm 21.8 E 5 9 1014.8 - 0.0 - - - - - - -
06/05:00pm 22.7 E 6 10 1014.8 - 0.0 - - - - - - -
06/04:30pm 22.0 E 6 9 1014.9 - 0.0 - - - - - - -
06/04:00pm 22.1 E 6 9 1015.2 - 0.0 - - - - - - -
06/03:30pm 21.8 E 7 10 1015.4 - 0.0 - - - - - - -
06/03:00pm 21.5 E 8 12 1015.6 - 0.0 - - - - - - -
06/02:30pm 22.0 E 9 13 1016.0 - 0.0 - - - - - - -
06/02:00pm 21.6 E 9 11 1016.2 - 0.0 - - - - - - -
06/01:30pm 21.4 E 9 12 1016.4 - 0.0 - - - - - - -
06/01:00pm 20.3 ESE 12 13 1016.6 - 0.0 - - - - - - -
06/12:30pm 21.0 E 11 13 1016.8 - 0.0 - - - - - - -
06/12:00pm 21.3 E 9 12 1016.8 - 0.0 - - - - - - -
06/11:30am 20.5 E 10 12 1017.0 - 0.0 - - - - - - -
06/11:00am 20.1 SSE 5 8 1017.2 - 0.0 - - - - - - -
06/10:30am 19.6 SSW 4 6 1017.4 - 0.0 - - - - - - -

Other Formats:

Comma delimited format used in spreadsheet applications
http://www.bom.gov.au/fwo/IDV60701/IDV60701.94842.axf

JavaScript Object Notation format (JSON) in row-major order
http://www.bom.gov.au/fwo/IDV60701/IDV60701.94842.json